createdAt,value
2022-11-24T00:02:11.230Z,99354.28
2022-11-24T00:05:13.294Z,99361.34
2022-11-24T00:08:15.201Z,99361.97
2022-11-24T00:11:24.285Z,99363.19
2022-11-24T00:14:26.634Z,99350.56
2022-11-24T00:17:29.412Z,99362.34
2022-11-24T00:20:31.240Z,99366.13
2022-11-24T00:23:33.357Z,99355.78
2022-11-24T00:26:36.242Z,99359.88
2022-11-24T00:29:38.088Z,99368.87
2022-11-24T00:32:39.933Z,99376.59
2022-11-24T00:35:41.810Z,99372.66
2022-11-24T00:38:43.859Z,99376.41
2022-11-24T00:41:45.697Z,99378.81
2022-11-24T00:44:47.527Z,99365.78
2022-11-24T00:47:49.308Z,99371.75
2022-11-24T00:50:58.288Z,99388.06
2022-11-24T00:54:01.026Z,99403.06
2022-11-24T00:57:02.939Z,99402.41
2022-11-24T01:00:05.002Z,99402.78
2022-11-24T01:03:07.630Z,99399.34
2022-11-24T01:06:09.388Z,99398.47
2022-11-24T01:09:11.992Z,99399.84
2022-11-24T01:12:13.805Z,99404.63
2022-11-24T01:15:15.609Z,99398.84
2022-11-24T01:18:17.441Z,99405.00
2022-11-24T01:21:20.169Z,99409.13
2022-11-24T01:24:22.089Z,99408.94
2022-11-24T01:27:23.936Z,99413.38
2022-11-24T01:30:25.769Z,99410.56
2022-11-24T01:33:27.669Z,99412.97
2022-11-24T01:36:29.477Z,99415.00
2022-11-24T01:39:31.301Z,99420.97
2022-11-24T01:42:59.500Z,99412.94
2022-11-24T01:46:24.384Z,99422.22
2022-11-24T01:49:33.878Z,99419.72
2022-11-24T01:52:40.113Z,99416.25
2022-11-24T01:55:41.888Z,99417.78
2022-11-24T01:58:43.903Z,99427.38
2022-11-24T02:01:46.038Z,99424.31
2022-11-24T02:04:47.948Z,99422.25
2022-11-24T02:07:49.872Z,99423.00
2022-11-24T02:10:51.785Z,99419.94
2022-11-24T02:13:53.649Z,99426.59
2022-11-24T02:16:55.420Z,99421.72
2022-11-24T02:20:04.550Z,99431.75
2022-11-24T02:23:09.429Z,99416.50
2022-11-24T02:26:17.505Z,99428.38
2022-11-24T02:29:20.624Z,99426.72
2022-11-24T02:32:22.431Z,99429.97
2022-11-24T02:35:25.452Z,99423.81
2022-11-24T02:38:34.066Z,99427.22
2022-11-24T02:41:35.854Z,99427.78
2022-11-24T02:44:39.271Z,99431.06
2022-11-24T02:47:41.101Z,99422.16
2022-11-24T02:50:43.029Z,99425.84
2022-11-24T02:53:44.830Z,99428.53
2022-11-24T02:56:46.642Z,99435.56
2022-11-24T02:59:48.429Z,99424.94
2022-11-24T03:02:50.434Z,99433.94
2022-11-24T03:05:52.325Z,99428.41
2022-11-24T03:08:54.112Z,99422.13
2022-11-24T03:11:55.914Z,99425.03
2022-11-24T03:14:57.715Z,99435.31
2022-11-24T03:17:59.543Z,99436.97
2022-11-24T03:21:01.329Z,99437.00
2022-11-24T03:24:03.176Z,99440.25
2022-11-24T03:27:04.976Z,99441.81
2022-11-24T03:30:07.165Z,99447.13
2022-11-24T03:33:08.986Z,99452.19
2022-11-24T03:36:10.781Z,99455.53
2022-11-24T03:39:12.592Z,99454.06
2022-11-24T03:42:14.387Z,99462.19
2022-11-24T03:45:44.310Z,99462.38
2022-11-24T03:48:38.009Z,99460.94
2022-11-24T03:51:39.867Z,99466.13
2022-11-24T03:54:42.389Z,99461.66
2022-11-24T03:57:44.222Z,99465.56
2022-11-24T04:00:46.216Z,99474.87
2022-11-24T04:03:48.060Z,99461.47
2022-11-24T04:06:49.883Z,99471.19
2022-11-24T04:09:51.721Z,99475.22
2022-11-24T04:12:53.503Z,99474.28
2022-11-24T04:15:55.430Z,99474.72
2022-11-24T04:18:57.604Z,99477.59
2022-11-24T04:21:59.419Z,99481.06
2022-11-24T04:25:01.368Z,99487.81
2022-11-24T04:28:03.333Z,99490.50
2022-11-24T04:31:05.526Z,99486.00
2022-11-24T04:34:07.371Z,99495.97
2022-11-24T04:37:09.231Z,99501.88
2022-11-24T04:40:11.469Z,99502.19
2022-11-24T04:43:13.564Z,99501.41
2022-11-24T04:46:15.611Z,99506.75
2022-11-24T04:49:17.517Z,99512.38
2022-11-24T04:52:19.883Z,99519.56
2022-11-24T04:55:21.712Z,99516.25
2022-11-24T04:58:23.513Z,99516.59
2022-11-24T05:01:25.480Z,99525.53
2022-11-24T05:04:27.408Z,99531.38
2022-11-24T05:07:29.430Z,99537.09
2022-11-24T05:10:37.365Z,99546.88
2022-11-24T05:13:39.224Z,99551.84
2022-11-24T05:16:41.142Z,99548.84
2022-11-24T05:19:42.937Z,99553.56
2022-11-24T05:22:44.916Z,99557.81
2022-11-24T05:25:47.905Z,99563.81
2022-11-24T05:28:49.978Z,99562.12
2022-11-24T05:31:51.821Z,99566.56
2022-11-24T05:34:54.684Z,99573.50
2022-11-24T05:37:57.867Z,99573.09
2022-11-24T05:41:00.648Z,99572.72
2022-11-24T05:44:02.529Z,99575.84
2022-11-24T05:47:04.582Z,99583.25
2022-11-24T05:50:06.825Z,99584.03
2022-11-24T05:53:12.235Z,99585.06
2022-11-24T05:56:14.148Z,99584.09
2022-11-24T05:59:16.009Z,99596.63
2022-11-24T06:02:17.942Z,99590.28
2022-11-24T06:05:19.904Z,99597.44
2022-11-24T06:08:22.953Z,99595.78
2022-11-24T06:11:27.428Z,99596.87
2022-11-24T06:14:29.257Z,99589.97
2022-11-24T06:17:31.258Z,99596.63
2022-11-24T06:20:33.296Z,99602.56
2022-11-24T06:23:35.403Z,99608.34
2022-11-24T06:26:37.235Z,99612.00
2022-11-24T06:29:39.216Z,99615.47
2022-11-24T06:32:49.137Z,99610.81
2022-11-24T06:35:51.726Z,99627.25
2022-11-24T06:38:54.044Z,99634.91
2022-11-24T06:41:55.879Z,99633.59
2022-11-24T06:44:57.707Z,99638.88
2022-11-24T06:47:59.538Z,99638.53
2022-11-24T06:51:02.177Z,99634.28
2022-11-24T06:54:07.724Z,99642.84
2022-11-24T06:57:09.540Z,99632.53
2022-11-24T07:00:11.988Z,99650.19
2022-11-24T07:03:14.515Z,99656.06
2022-11-24T07:06:19.385Z,99659.63
2022-11-24T07:09:21.330Z,99671.22
2022-11-24T07:12:24.352Z,99663.22
2022-11-24T07:15:26.548Z,99670.63
2022-11-24T07:18:28.497Z,99667.84
2022-11-24T07:21:30.848Z,99684.41
2022-11-24T07:24:33.026Z,99681.59
2022-11-24T07:27:35.380Z,99687.22
2022-11-24T07:30:37.353Z,99689.19
2022-11-24T07:33:39.275Z,99696.66
2022-11-24T07:36:41.454Z,99702.94
2022-11-24T07:39:43.409Z,99701.38
2022-11-24T07:42:45.303Z,99705.38
2022-11-24T07:45:53.320Z,99707.94
2022-11-24T07:48:55.280Z,99704.13
2022-11-24T07:51:57.338Z,99702.53
2022-11-24T07:54:59.693Z,99706.56
2022-11-24T07:58:01.553Z,99707.75
2022-11-24T08:01:13.605Z,99712.16
2022-11-24T08:04:15.589Z,99715.47
2022-11-24T08:07:17.508Z,99712.25
2022-11-24T08:10:21.896Z,99714.75
2022-11-24T08:13:23.743Z,99713.63
2022-11-24T08:16:25.757Z,99721.50
2022-11-24T08:19:27.677Z,99720.78
2022-11-24T08:22:29.801Z,99719.13
2022-11-24T08:25:32.842Z,99727.34
2022-11-24T08:28:35.339Z,99730.34
2022-11-24T08:31:38.307Z,99729.84
2022-11-24T08:34:40.221Z,99737.25
2022-11-24T08:37:42.134Z,99735.97
2022-11-24T08:40:43.966Z,99735.53
2022-11-24T08:43:45.987Z,99744.88
2022-11-24T08:46:47.853Z,99750.19
2022-11-24T08:49:49.747Z,99753.16
2022-11-24T08:52:52.619Z,99758.63
2022-11-24T08:55:59.014Z,99763.13
2022-11-24T08:59:01.264Z,99758.91
2022-11-24T09:02:03.303Z,99753.28
2022-11-24T09:05:12.904Z,99755.69
2022-11-24T09:08:24.784Z,99768.31
2022-11-24T09:11:27.398Z,99762.44
2022-11-24T09:14:29.535Z,99755.25
2022-11-24T09:17:31.460Z,99755.25
2022-11-24T09:20:33.651Z,99760.97
2022-11-24T09:23:35.998Z,99765.19
2022-11-24T09:26:40.644Z,99769.38
2022-11-24T09:29:45.195Z,99762.72
2022-11-24T09:32:47.030Z,99773.59
2022-11-24T09:35:50.040Z,99768.81
2022-11-24T09:38:52.288Z,99767.63
2022-11-24T09:42:12.976Z,99765.34
2022-11-24T09:46:04.611Z,99770.59
2022-11-24T09:49:03.576Z,99775.41
2022-11-24T09:52:08.957Z,99758.63
2022-11-24T09:55:34.327Z,99755.72
2022-11-24T09:58:42.537Z,99762.06
2022-11-24T10:01:45.114Z,99758.00
2022-11-24T10:04:47.132Z,99769.00
2022-11-24T10:07:57.921Z,99772.53
2022-11-24T10:11:00.649Z,99772.59
2022-11-24T10:14:21.118Z,99779.00
2022-11-24T10:17:29.460Z,99777.25
2022-11-24T10:20:31.183Z,99779.87
2022-11-24T10:23:41.308Z,99771.59
2022-11-24T10:26:47.014Z,99775.41
2022-11-24T10:29:50.038Z,99764.13
2022-11-24T10:33:01.168Z,99783.97
2022-11-24T10:36:11.131Z,99770.41
2022-11-24T10:39:32.471Z,99768.91
2022-11-24T10:42:37.684Z,99777.88
2022-11-24T10:45:39.688Z,99774.91
2022-11-24T10:48:43.578Z,99780.41
2022-11-24T10:52:02.141Z,99785.53
2022-11-24T10:55:04.976Z,99797.19
2022-11-24T10:58:14.789Z,99802.41
2022-11-24T11:01:21.405Z,99799.09
2022-11-24T11:04:33.640Z,99805.03
2022-11-24T11:07:35.619Z,99810.53
2022-11-24T11:10:38.115Z,99813.22
2022-11-24T11:13:51.066Z,99813.09
2022-11-24T11:16:53.510Z,99815.50
2022-11-24T11:20:01.979Z,99812.56
2022-11-24T11:23:13.655Z,99808.81
2022-11-24T11:26:24.807Z,99818.66
2022-11-24T11:36:15.887Z,99829.28
2022-11-24T11:39:17.715Z,99839.78
2022-11-24T11:46:00.075Z,99831.75
2022-11-24T11:49:02.084Z,99831.66
2022-11-24T11:52:09.255Z,99839.09
2022-11-24T11:55:30.501Z,99835.13
2022-11-24T11:58:35.148Z,99830.97
2022-11-24T12:01:52.294Z,99822.94
2022-11-24T12:04:54.205Z,99827.00
2022-11-24T12:08:10.954Z,99841.56
2022-11-24T12:11:21.177Z,99834.75
2022-11-24T12:14:23.283Z,99830.72
2022-11-24T12:17:34.153Z,99839.53
2022-11-24T12:20:54.909Z,99829.78
2022-11-24T12:24:05.798Z,99831.47
2022-11-24T12:27:22.457Z,99820.22
2022-11-24T12:30:25.203Z,99841.44
2022-11-24T12:33:39.417Z,99831.94
2022-11-24T12:37:00.236Z,99835.72
2022-11-24T12:40:04.842Z,99826.94
2022-11-24T12:43:22.047Z,99838.12
2022-11-24T12:46:30.171Z,99846.78
2022-11-24T12:49:51.619Z,99842.56
2022-11-24T12:53:02.916Z,99845.34
2022-11-24T12:56:08.690Z,99844.97
2022-11-24T12:59:10.600Z,99859.16
2022-11-24T13:02:31.573Z,99847.91
2022-11-24T13:05:48.957Z,99845.03
2022-11-24T13:08:50.910Z,99848.59
2022-11-24T13:11:53.467Z,99836.38
2022-11-24T13:14:55.337Z,99855.09
2022-11-24T13:18:10.254Z,99867.41
2022-11-24T13:21:30.861Z,99869.84
2022-11-24T13:24:34.674Z,99869.59
2022-11-24T13:27:40.698Z,99869.88
2022-11-24T13:30:45.232Z,99862.19
2022-11-24T13:33:47.114Z,99869.34
2022-11-24T13:36:52.755Z,99875.56
2022-11-24T13:39:58.860Z,99886.03
2022-11-24T13:43:03.395Z,99883.41
2022-11-24T13:46:08.024Z,99886.16
2022-11-24T13:49:14.020Z,99880.19
2022-11-24T13:52:34.614Z,99879.59
2022-11-24T13:55:38.756Z,99889.59
2022-11-24T13:58:41.437Z,99873.88
2022-11-24T14:01:44.766Z,99890.75
2022-11-24T14:04:46.947Z,99899.41
2022-11-24T14:07:49.071Z,99899.84
2022-11-24T14:10:50.942Z,99899.84
2022-11-24T14:13:53.167Z,99909.41
2022-11-24T14:17:05.714Z,99913.16
2022-11-24T14:20:16.621Z,99916.47
2022-11-24T14:23:18.486Z,99918.19
2022-11-24T14:26:21.643Z,99913.06
2022-11-24T14:29:23.961Z,99911.91
2022-11-24T14:32:25.988Z,99907.63
2022-11-24T14:35:29.385Z,99910.47
2022-11-24T14:38:31.620Z,99920.03
2022-11-24T14:41:33.627Z,99927.41
2022-11-24T14:44:43.778Z,99928.50
2022-11-24T14:47:45.670Z,99929.16
2022-11-24T14:50:47.733Z,99932.63
2022-11-24T14:53:51.474Z,99937.72
2022-11-24T14:57:00.810Z,99942.19
2022-11-24T15:00:09.541Z,99965.72
2022-11-24T15:03:17.160Z,99966.00
2022-11-24T15:06:19.670Z,99972.28
2022-11-24T15:09:39.979Z,99977.84
2022-11-24T15:12:42.693Z,99971.66
2022-11-24T15:15:48.690Z,99977.19
2022-11-24T15:18:57.747Z,99978.16
2022-11-24T15:21:59.754Z,99984.31
2022-11-24T15:25:01.769Z,99982.97
2022-11-24T15:28:04.294Z,99989.94
2022-11-24T15:31:07.220Z,99993.81
2022-11-24T15:34:09.934Z,99989.00
2022-11-24T15:37:12.819Z,99992.59
2022-11-24T15:40:14.801Z,99993.56
2022-11-24T15:43:19.678Z,100001.84
2022-11-24T15:46:21.660Z,100006.22
2022-11-24T15:49:23.804Z,100000.88
2022-11-24T15:52:25.711Z,99995.16
2022-11-24T15:55:27.602Z,100004.22
2022-11-24T15:58:29.497Z,100002.78
2022-11-24T16:01:32.525Z,100001.47
2022-11-24T16:04:34.853Z,100008.94
2022-11-24T16:07:37.059Z,100014.19
2022-11-24T16:10:38.983Z,100014.03
2022-11-24T16:13:40.900Z,100013.66
2022-11-24T16:16:43.358Z,100016.63
2022-11-24T16:19:45.490Z,100020.59
2022-11-24T16:22:47.289Z,100023.09
2022-11-24T16:25:49.330Z,100027.78
2022-11-24T16:28:51.175Z,100028.13
2022-11-24T16:31:53.380Z,100026.91
2022-11-24T16:34:55.241Z,100025.16
2022-11-24T16:37:57.117Z,100024.00
2022-11-24T16:40:59.295Z,100032.16
2022-11-24T16:44:01.121Z,100020.69
2022-11-24T16:47:03.018Z,100041.38
2022-11-24T16:50:05.124Z,100048.72
2022-11-24T16:53:07.085Z,100050.69
2022-11-24T16:56:09.092Z,100056.69
2022-11-24T16:59:10.975Z,100048.13
2022-11-24T17:02:13.318Z,100058.72
2022-11-24T17:05:15.565Z,100056.25
2022-11-24T17:08:17.475Z,100073.75
2022-11-24T17:11:21.042Z,100070.22
2022-11-24T17:14:23.002Z,100061.81
2022-11-24T17:17:24.812Z,100067.47
2022-11-24T17:20:26.599Z,100070.50
2022-11-24T17:23:28.677Z,100080.44
2022-11-24T17:26:30.804Z,100075.25
2022-11-24T17:29:32.855Z,100076.41
2022-11-24T17:32:35.092Z,100086.91
2022-11-24T17:35:38.211Z,100087.09
2022-11-24T17:38:40.043Z,100098.09
2022-11-24T17:41:41.948Z,100091.87
2022-11-24T17:44:43.780Z,100101.06
2022-11-24T17:47:45.845Z,100096.78
2022-11-24T17:50:47.908Z,100100.84
2022-11-24T17:53:50.735Z,100112.94
2022-11-24T17:56:52.740Z,100109.84
2022-11-24T17:59:54.634Z,100113.94
2022-11-24T18:02:57.908Z,100125.50
2022-11-24T18:06:06.673Z,100125.03
2022-11-24T18:09:08.573Z,100122.31
2022-11-24T18:12:10.425Z,100135.03
2022-11-24T18:15:12.315Z,100133.56
2022-11-24T18:18:14.175Z,100135.81
2022-11-24T18:21:16.793Z,100144.97
2022-11-24T18:24:23.917Z,100135.63
2022-11-24T18:27:26.232Z,100143.09
2022-11-24T18:30:28.133Z,100140.69
2022-11-24T18:33:30.204Z,100141.87
2022-11-24T18:36:32.159Z,100152.44
2022-11-24T18:39:34.103Z,100154.56
2022-11-24T18:42:35.988Z,100155.66
2022-11-24T18:45:38.206Z,100149.00
2022-11-24T18:48:40.216Z,100157.59
2022-11-24T18:51:42.091Z,100158.13
2022-11-24T18:54:43.997Z,100169.47
2022-11-24T18:57:45.840Z,100166.81
2022-11-24T19:00:47.675Z,100171.56
2022-11-24T19:03:53.486Z,100174.38
2022-11-24T19:06:55.347Z,100175.47
2022-11-24T19:09:57.260Z,100176.56
2022-11-24T19:12:59.120Z,100187.00
2022-11-24T19:16:01.108Z,100181.41
2022-11-24T19:19:03.050Z,100196.44
2022-11-24T19:22:05.072Z,100194.00
2022-11-24T19:25:07.330Z,100201.00
2022-11-24T19:28:12.601Z,100213.34
2022-11-24T19:31:15.068Z,100207.88
2022-11-24T19:34:17.093Z,100216.16
2022-11-24T19:37:19.150Z,100214.31
2022-11-24T19:40:21.015Z,100228.66
2022-11-24T19:43:22.845Z,100222.38
2022-11-24T19:46:29.422Z,100218.59
2022-11-24T19:49:31.397Z,100226.72
2022-11-24T19:52:33.197Z,100217.81
2022-11-24T19:55:35.040Z,100229.91
2022-11-24T19:58:37.208Z,100240.75
2022-11-24T20:01:40.050Z,100246.34
2022-11-24T20:04:43.035Z,100248.88
2022-11-24T20:07:44.909Z,100246.78
2022-11-24T20:10:46.770Z,100253.50
2022-11-24T20:13:49.863Z,100255.03
2022-11-24T20:16:51.878Z,100272.00
2022-11-24T20:19:53.800Z,100270.06
2022-11-24T20:22:55.747Z,100272.75
2022-11-24T20:26:02.367Z,100265.44
2022-11-24T20:29:04.660Z,100284.69
2022-11-24T20:32:06.573Z,100284.25
2022-11-24T20:35:12.316Z,100293.81
2022-11-24T20:38:17.089Z,100296.41
2022-11-24T20:41:19.990Z,100302.94
2022-11-24T20:44:22.196Z,100301.69
2022-11-24T20:47:24.106Z,100310.53
2022-11-24T20:50:25.969Z,100311.03
2022-11-24T20:53:27.918Z,100312.44
2022-11-24T20:56:30.686Z,100313.38
2022-11-24T20:59:32.615Z,100314.78
2022-11-24T21:02:34.509Z,100317.75
2022-11-24T21:05:36.431Z,100324.09
2022-11-24T21:08:39.016Z,100321.87
2022-11-24T21:11:41.034Z,100320.34
2022-11-24T21:14:42.913Z,100319.31
2022-11-24T21:17:44.779Z,100323.81
2022-11-24T21:20:46.809Z,100326.66
2022-11-24T21:23:48.671Z,100336.16
2022-11-24T21:26:52.540Z,100333.94
2022-11-24T21:29:54.399Z,100320.59
2022-11-24T21:32:56.243Z,100327.91
2022-11-24T21:36:02.635Z,100333.84
2022-11-24T21:39:04.572Z,100328.97
2022-11-24T21:42:06.492Z,100335.31
2022-11-24T21:45:10.810Z,100343.03
2022-11-24T21:48:12.701Z,100336.47
2022-11-24T21:51:15.683Z,100342.66
2022-11-24T21:54:17.554Z,100343.06
2022-11-24T21:57:19.407Z,100347.53
2022-11-24T22:00:21.265Z,100338.00
2022-11-24T22:03:23.216Z,100329.41
2022-11-24T22:06:25.079Z,100339.31
2022-11-24T22:09:26.968Z,100337.41
2022-11-24T22:12:28.949Z,100346.22
2022-11-24T22:15:30.768Z,100353.19
2022-11-24T22:18:33.235Z,100351.41
2022-11-24T22:21:35.042Z,100349.37
2022-11-24T22:24:37.186Z,100354.28
2022-11-24T22:27:39.593Z,100360.47
2022-11-24T22:30:41.421Z,100369.50
2022-11-24T22:33:43.954Z,100368.94
2022-11-24T22:36:45.781Z,100383.28
2022-11-24T22:39:47.608Z,100386.94
2022-11-24T22:42:49.497Z,100381.78
2022-11-24T22:45:51.411Z,100389.31
2022-11-24T22:48:54.060Z,100389.97
2022-11-24T22:51:55.920Z,100385.81
2022-11-24T22:54:57.857Z,100394.75
2022-11-24T22:57:59.685Z,100388.06
2022-11-24T23:01:05.444Z,100399.81
2022-11-24T23:04:07.356Z,100403.28
2022-11-24T23:07:09.772Z,100388.84
2022-11-24T23:10:11.838Z,100392.66
2022-11-24T23:13:13.669Z,100399.75
2022-11-24T23:16:16.903Z,100411.09
2022-11-24T23:19:18.867Z,100402.81
2022-11-24T23:22:20.701Z,100407.50
2022-11-24T23:25:22.644Z,100411.84
2022-11-24T23:28:24.494Z,100415.34
2022-11-24T23:31:29.336Z,100414.47
2022-11-24T23:34:31.383Z,100416.78
2022-11-24T23:38:00.001Z,100425.50
2022-11-24T23:40:56.188Z,100422.38
2022-11-24T23:43:58.154Z,100422.53
2022-11-24T23:47:00.031Z,100421.03
2022-11-24T23:50:02.047Z,100426.03
2022-11-24T23:53:03.880Z,100426.06
2022-11-24T23:56:05.980Z,100423.37
2022-11-24T23:59:09.909Z,100428.09
